Time;durP1;ratioP1;P1;durP2;ratioP2;P2;SDS_P1;SDS_P2;PMS_P1;PMS_P2;Temp;Humidity;BMP_temperature;BMP_pressure;BME280_temperature;BME280_humidity;BME280_pressure;Samples;Min_cycle;Max_cycle;Signal;HPM_P1;HPM_P2
2024/04/15 00:02:23;;;;;;;;;;;;;;;16.01;100.00;100228.27;106044;1260;72734;-85
2024/04/15 00:04:50;;;;;;;;;;;;;;;15.98;100.00;100235.27;105938;1265;62135;-85
2024/04/15 00:07:18;;;;;;;;;;;;;;;15.96;100.00;100234.78;106195;1259;62105;-85
2024/04/15 00:09:45;;;;;;;;;;;;;;;15.97;100.00;100236.95;106246;1257;75587;-83
2024/04/15 00:12:13;;;;;;;;;;;;;;;15.95;100.00;100242.28;106081;1257;67550;-83
2024/04/15 00:14:40;;;;;;;;;;;;;;;15.96;100.00;100242.73;105920;1259;71492;-83
2024/04/15 00:17:08;;;;;;;;;;;;;;;15.96;100.00;100245.08;106048;1262;62689;-84
2024/04/15 00:19:35;;;;;;;;;;;;;;;15.95;100.00;100249.93;106149;1260;62041;-86
2024/04/15 00:22:03;;;;;;;;;;;;;;;15.94;100.00;100254.45;106059;1262;75315;-83
2024/04/15 00:24:30;;;;;;;;;;;;;;;15.87;100.00;100257.41;105966;1261;67636;-85
2024/04/15 00:26:58;;;;;;;;;;;;;;;15.78;100.00;100261.66;106097;1257;72687;-83
2024/04/15 00:29:26;;;;;;;;;;;;;;;15.75;100.00;100266.88;106001;1257;62185;-84
2024/04/15 00:31:53;;;;;;;;;;;;;;;15.70;100.00;100268.55;106011;1260;62154;-84
2024/04/15 00:34:22;;;;;;;;;;;;;;;15.63;100.00;100268.29;105980;1258;75397;-85
2024/04/15 00:36:49;;;;;;;;;;;;;;;15.57;100.00;100268.61;105952;1259;67379;-84
2024/04/15 00:39:17;;;;;;;;;;;;;;;15.54;100.00;100271.21;106123;1259;71808;-83
2024/04/15 00:41:44;;;;;;;;;;;;;;;15.47;100.00;100273.32;105994;1256;62190;-85
2024/04/15 00:44:12;;;;;;;;;;;;;;;15.43;100.00;100273.02;106110;1259;62042;-84
2024/04/15 00:46:39;;;;;;;;;;;;;;;15.40;100.00;100270.05;106109;1256;75831;-84
2024/04/15 00:49:06;;;;;;;;;;;;;;;15.36;100.00;100277.10;106030;1256;68858;-85
2024/04/15 00:51:34;;;;;;;;;;;;;;;15.32;100.00;100273.70;106075;1256;72751;-83
2024/04/15 00:54:02;;;;;;;;;;;;;;;15.22;100.00;100274.26;106379;1256;62213;-85
2024/04/15 00:56:29;;;;;;;;;;;;;;;15.20;100.00;100268.94;105944;1256;60375;-83
2024/04/15 00:58:57;;;;;;;;;;;;;;;15.14;100.00;100269.64;106256;1256;74240;-85
2024/04/15 01:01:25;;;;;;;;;;;;;;;15.12;100.00;100262.64;105982;1263;67575;-84
2024/04/15 01:03:54;;;;;;;;;;;;;;;15.08;100.00;100262.80;106086;1260;72790;-86
2024/04/15 01:06:22;;;;;;;;;;;;;;;15.01;100.00;100264.61;106036;1261;62077;-83
2024/04/15 01:08:49;;;;;;;;;;;;;;;14.94;100.00;100268.99;105952;1262;62121;-83
2024/04/15 01:11:17;;;;;;;;;;;;;;;14.84;100.00;100277.05;106071;1256;74681;-85
2024/04/15 01:13:44;;;;;;;;;;;;;;;14.77;100.00;100282.20;105991;1256;68979;-85
2024/04/15 01:16:12;;;;;;;;;;;;;;;14.71;100.00;100282.70;106074;1259;71738;-83
2024/04/15 01:18:39;;;;;;;;;;;;;;;14.69;100.00;100278.64;106015;1258;62127;-84
2024/04/15 01:21:07;;;;;;;;;;;;;;;14.66;100.00;100276.09;106102;1257;62116;-86
2024/04/15 01:23:38;;;;;;;;;;;;;;;14.63;100.00;100272.35;105888;1258;75430;-83
2024/04/15 01:26:05;;;;;;;;;;;;;;;14.60;100.00;100266.70;105932;1259;67448;-83
2024/04/15 01:28:33;;;;;;;;;;;;;;;14.60;100.00;100264.40;106247;1261;71471;-86
2024/04/15 01:31:01;;;;;;;;;;;;;;;14.54;100.00;100262.77;105981;1256;62541;-83
2024/04/15 01:33:28;;;;;;;;;;;;;;;14.45;100.00;100262.13;105982;1262;61897;-85
2024/04/15 01:35:55;;;;;;;;;;;;;;;14.40;100.00;100265.58;105974;1256;75556;-85
2024/04/15 01:38:23;;;;;;;;;;;;;;;14.36;100.00;100265.73;106011;1261;67699;-83
2024/04/15 01:40:50;;;;;;;;;;;;;;;14.28;100.00;100272.52;106087;1258;72981;-84
2024/04/15 01:43:18;;;;;;;;;;;;;;;14.26;100.00;100269.20;106109;1262;62184;-85
2024/04/15 01:45:45;;;;;;;;;;;;;;;14.27;100.00;100274.83;106026;1258;62124;-86
2024/04/15 01:48:13;;;;;;;;;;;;;;;14.28;100.00;100272.63;106025;1262;75281;-85
2024/04/15 01:50:40;;;;;;;;;;;;;;;14.26;100.00;100280.87;105968;1257;67293;-85
2024/04/15 01:53:11;;;;;;;;;;;;;;;14.27;100.00;100276.51;105956;1256;72700;-86
2024/04/15 01:55:38;;;;;;;;;;;;;;;14.26;100.00;100284.25;106026;1264;62767;-86
2024/04/15 01:58:06;;;;;;;;;;;;;;;14.24;100.00;100281.16;106097;1262;62098;-84
2024/04/15 02:00:33;;;;;;;;;;;;;;;14.25;100.00;100282.25;105978;1256;75110;-85
2024/04/15 02:03:01;;;;;;;;;;;;;;;14.25;100.00;100286.64;106004;1256;66321;-85
2024/04/15 02:05:29;;;;;;;;;;;;;;;14.24;100.00;100291.29;106058;1257;72806;-85
2024/04/15 02:07:56;;;;;;;;;;;;;;;14.21;100.00;100285.65;105960;1256;62474;-86
2024/04/15 02:10:24;;;;;;;;;;;;;;;14.17;100.00;100287.64;106206;1256;62159;-84
2024/04/15 02:12:51;;;;;;;;;;;;;;;14.15;100.00;100286.81;106027;1257;75524;-83
2024/04/15 02:15:19;;;;;;;;;;;;;;;14.12;100.00;100293.56;106241;1257;71569;-86
2024/04/15 02:17:46;;;;;;;;;;;;;;;14.11;100.00;100297.94;105995;1262;71511;-85
2024/04/15 02:20:14;;;;;;;;;;;;;;;14.08;100.00;100293.81;106056;1256;62107;-83
2024/04/15 02:22:41;;;;;;;;;;;;;;;14.06;100.00;100291.61;106123;1257;62171;-86
2024/04/15 02:25:09;;;;;;;;;;;;;;;14.01;100.00;100290.73;105943;1258;75708;-86
2024/04/15 02:27:36;;;;;;;;;;;;;;;13.96;100.00;100285.05;106617;1256;69253;-85
2024/04/15 02:30:05;;;;;;;;;;;;;;;13.95;100.00;100289.20;106081;1259;71296;-85
2024/04/15 02:32:32;;;;;;;;;;;;;;;13.94;100.00;100292.90;106005;1260;61982;-83
2024/04/15 02:35:00;;;;;;;;;;;;;;;13.92;100.00;100290.68;105959;1257;62084;-84
2024/04/15 02:37:28;;;;;;;;;;;;;;;13.88;100.00;100297.74;105979;1259;74150;-85
2024/04/15 02:39:55;;;;;;;;;;;;;;;13.82;100.00;100294.23;106384;1256;67684;-86
2024/04/15 02:42:23;;;;;;;;;;;;;;;13.78;100.00;100296.34;106128;1260;71843;-86
2024/04/15 02:44:50;;;;;;;;;;;;;;;13.74;100.00;100301.20;105892;1259;61965;-85
2024/04/15 02:47:17;;;;;;;;;;;;;;;13.70;100.00;100304.90;105977;1262;62007;-86
2024/04/15 02:49:45;;;;;;;;;;;;;;;13.61;100.00;100303.65;106168;1257;74698;-84
2024/04/15 02:52:12;;;;;;;;;;;;;;;13.62;100.00;100302.24;106298;1257;68479;-83
2024/04/15 02:54:40;;;;;;;;;;;;;;;13.63;100.00;100298.77;106107;1263;72909;-86
2024/04/15 02:57:07;;;;;;;;;;;;;;;13.62;100.00;100298.46;106146;1262;62500;-84
2024/04/15 02:59:35;;;;;;;;;;;;;;;13.60;100.00;100298.67;106030;1258;60005;-84
2024/04/15 03:02:02;;;;;;;;;;;;;;;13.60;100.00;100299.49;105996;1257;75545;-83
2024/04/15 03:04:30;;;;;;;;;;;;;;;13.55;100.00;100298.15;106030;1262;67558;-85
2024/04/15 03:06:58;;;;;;;;;;;;;;;13.50;100.00;100297.52;106147;1263;72740;-83
2024/04/15 03:09:26;;;;;;;;;;;;;;;13.41;100.00;100297.95;105982;1256;62055;-84
2024/04/15 03:11:53;;;;;;;;;;;;;;;13.33;100.00;100299.74;105999;1259;62069;-85
2024/04/15 03:14:21;;;;;;;;;;;;;;;13.31;100.00;100304.06;106112;1260;77409;-86
2024/04/15 03:16:48;;;;;;;;;;;;;;;13.31;100.00;100304.17;106077;1262;67306;-85
2024/04/15 03:19:16;;;;;;;;;;;;;;;13.27;100.00;100313.17;106211;1262;71464;-87
2024/04/15 03:21:44;;;;;;;;;;;;;;;13.33;100.00;100317.87;106088;1260;62024;-83
2024/04/15 03:24:12;;;;;;;;;;;;;;;13.33;100.00;100317.09;105965;1256;62182;-86
2024/04/15 03:26:39;;;;;;;;;;;;;;;13.24;100.00;100324.91;106169;1261;74496;-86
2024/04/15 03:29:06;;;;;;;;;;;;;;;13.15;100.00;100329.52;105964;1264;68717;-86
2024/04/15 03:31:34;;;;;;;;;;;;;;;13.13;100.00;100333.87;106129;1257;71277;-85
2024/04/15 03:34:02;;;;;;;;;;;;;;;13.18;100.00;100341.52;106124;1260;62101;-86
2024/04/15 03:36:29;;;;;;;;;;;;;;;13.24;100.00;100338.40;106093;1256;62079;-85
2024/04/15 03:39:01;;;;;;;;;;;;;;;13.23;100.00;100340.84;106044;1262;75521;-87
2024/04/15 03:41:32;;;;;;;;;;;;;;;13.24;100.00;100347.25;105984;1257;68506;-85
2024/04/15 03:44:01;;;;;;;;;;;;;;;13.23;100.00;100349.89;106094;1257;72828;-83
2024/04/15 03:46:28;;;;;;;;;;;;;;;13.26;100.00;100352.10;106147;1262;62133;-84
2024/04/15 03:48:56;;;;;;;;;;;;;;;13.30;100.00;100352.88;106662;1257;62063;-85
2024/04/15 03:51:23;;;;;;;;;;;;;;;13.35;100.00;100356.58;106201;1256;75498;-86
2024/04/15 03:53:51;;;;;;;;;;;;;;;13.43;100.00;100361.98;106163;1256;67807;-83
2024/04/15 03:56:18;;;;;;;;;;;;;;;13.52;100.00;100361.51;106177;1261;72695;-87
2024/04/15 03:58:45;;;;;;;;;;;;;;;13.59;100.00;100368.90;106104;1257;62152;-83
2024/04/15 04:01:13;;;;;;;;;;;;;;;13.69;100.00;100372.84;106348;1256;62072;-83
2024/04/15 04:03:41;;;;;;;;;;;;;;;13.80;100.00;100375.67;106194;1259;74519;-85
2024/04/15 04:06:09;;;;;;;;;;;;;;;13.90;100.00;100375.33;105856;1261;67538;-85
2024/04/15 04:08:39;;;;;;;;;;;;;;;14.00;100.00;100375.02;106012;1256;72933;-83
2024/04/15 04:11:10;;;;;;;;;;;;;;;14.09;100.00;100377.15;106196;1257;62022;-85
2024/04/15 04:13:42;;;;;;;;;;;;;;;14.25;100.00;100373.88;106057;1256;62079;-82
2024/04/15 04:16:13;;;;;;;;;;;;;;;14.30;100.00;100373.33;106001;1262;74370;-82
2024/04/15 04:18:41;;;;;;;;;;;;;;;14.29;100.00;100377.16;106040;1256;67428;-83
2024/04/15 04:21:11;;;;;;;;;;;;;;;14.32;100.00;100377.59;106102;1257;73010;-84
2024/04/15 04:23:39;;;;;;;;;;;;;;;14.38;100.00;100381.92;105838;1265;62138;-82
2024/04/15 04:26:07;;;;;;;;;;;;;;;14.47;100.00;100383.16;106045;1260;62193;-83
2024/04/15 04:28:34;;;;;;;;;;;;;;;14.61;100.00;100381.35;106084;1256;74301;-83
2024/04/15 04:31:02;;;;;;;;;;;;;;;14.67;100.00;100383.70;106599;1257;68396;-83
2024/04/15 04:33:30;;;;;;;;;;;;;;;14.84;100.00;100394.94;106053;1260;71439;-82
2024/04/15 04:35:58;;;;;;;;;;;;;;;14.87;100.00;100397.00;105959;1256;62134;-85
2024/04/15 04:38:26;;;;;;;;;;;;;;;15.12;100.00;100393.41;106177;1256;61998;-85
2024/04/15 04:40:57;;;;;;;;;;;;;;;15.37;100.00;100396.71;106270;1262;74523;-86
2024/04/15 04:43:25;;;;;;;;;;;;;;;15.43;100.00;100394.59;106425;1257;68832;-85
2024/04/15 04:45:52;;;;;;;;;;;;;;;15.41;100.00;100392.50;105969;1262;71468;-82
2024/04/15 04:48:20;;;;;;;;;;;;;;;15.44;100.00;100393.59;106183;1256;62074;-83
2024/04/15 04:50:47;;;;;;;;;;;;;;;15.51;100.00;100389.94;106350;1262;62082;-84
2024/04/15 04:53:15;;;;;;;;;;;;;;;15.56;100.00;100382.11;106447;1261;75547;-83
2024/04/15 04:55:42;;;;;;;;;;;;;;;15.62;100.00;100381.73;106505;1262;67987;-84
2024/04/15 04:58:10;;;;;;;;;;;;;;;15.74;100.00;100382.20;106237;1259;72789;-84
2024/04/15 05:00:37;;;;;;;;;;;;;;;15.79;100.00;100382.20;106198;1257;62087;-84
2024/04/15 05:03:05;;;;;;;;;;;;;;;15.82;100.00;100386.24;106129;1257;62137;-84
2024/04/15 05:05:33;;;;;;;;;;;;;;;15.94;100.00;100385.45;106139;1261;74944;-84
2024/04/15 05:08:00;;;;;;;;;;;;;;;15.99;100.00;100383.88;105961;1261;69494;-84
2024/04/15 05:10:28;;;;;;;;;;;;;;;16.04;100.00;100388.09;106123;1263;74407;-84
2024/04/15 05:12:55;;;;;;;;;;;;;;;16.09;100.00;100384.58;106025;1261;62556;-85
2024/04/15 05:15:23;;;;;;;;;;;;;;;16.16;100.00;100385.48;106061;1262;62138;-86
2024/04/15 05:17:51;;;;;;;;;;;;;;;16.29;100.00;100379.55;106111;1262;76059;-85
2024/04/15 05:20:19;;;;;;;;;;;;;;;16.37;100.00;100386.85;106073;1258;70847;-86
2024/04/15 05:22:46;;;;;;;;;;;;;;;16.38;100.00;100392.59;106337;1261;71544;-86
2024/04/15 05:25:14;;;;;;;;;;;;;;;16.39;100.00;100389.97;106048;1261;62073;-86
2024/04/15 05:27:41;;;;;;;;;;;;;;;16.43;100.00;100390.36;106155;1261;62169;-86
2024/04/15 05:30:09;;;;;;;;;;;;;;;16.48;100.00;100386.79;105982;1258;76493;-85
2024/04/15 05:32:37;;;;;;;;;;;;;;;16.51;100.00;100379.04;106158;1262;67103;-86
2024/04/15 05:35:05;;;;;;;;;;;;;;;16.60;100.00;100379.31;105990;1262;71705;-86
2024/04/15 05:37:32;;;;;;;;;;;;;;;16.70;100.00;100378.42;106174;1260;62159;-86
2024/04/15 05:40:00;;;;;;;;;;;;;;;16.69;100.00;100379.50;106337;1256;61967;-86
2024/04/15 05:42:28;;;;;;;;;;;;;;;16.84;100.00;100379.73;106001;1264;77748;-86
2024/04/15 05:44:55;;;;;;;;;;;;;;;16.88;100.00;100375.63;106032;1266;72165;-86
2024/04/15 05:47:23;;;;;;;;;;;;;;;16.86;100.00;100373.70;106188;1260;73626;-85
2024/04/15 05:49:51;;;;;;;;;;;;;;;16.92;100.00;100371.48;106081;1262;62170;-86
2024/04/15 05:52:19;;;;;;;;;;;;;;;17.03;100.00;100364.45;106279;1257;62139;-86
2024/04/15 05:54:46;;;;;;;;;;;;;;;17.06;100.00;100360.44;105951;1262;77415;-86
2024/04/15 05:57:14;;;;;;;;;;;;;;;17.12;100.00;100357.92;106058;1262;70972;-86
2024/04/15 05:59:41;;;;;;;;;;;;;;;17.28;100.00;100357.91;106017;1261;74903;-86
2024/04/15 06:02:09;;;;;;;;;;;;;;;17.43;100.00;100356.61;106173;1260;62252;-86
2024/04/15 06:04:36;;;;;;;;;;;;;;;17.41;100.00;100357.31;106117;1261;62226;-87
2024/04/15 06:07:04;;;;;;;;;;;;;;;17.29;100.00;100360.19;106241;1262;75305;-84
2024/04/15 06:09:32;;;;;;;;;;;;;;;17.14;100.00;100356.70;107305;1257;68483;-85
2024/04/15 06:12:00;;;;;;;;;;;;;;;17.07;100.00;100355.66;107818;1259;73516;-85
2024/04/15 06:14:27;;;;;;;;;;;;;;;17.05;100.00;100351.80;108087;1257;62635;-85
2024/04/15 06:16:55;;;;;;;;;;;;;;;17.05;100.00;100346.41;107540;1257;62077;-85
2024/04/15 06:19:24;;;;;;;;;;;;;;;17.10;100.00;100342.08;106952;1256;74371;-86
2024/04/15 06:21:54;;;;;;;;;;;;;;;17.23;100.00;100336.16;108107;1257;70554;-84
2024/04/15 06:24:21;;;;;;;;;;;;;;;17.36;100.00;100337.77;107975;1257;73268;-86
2024/04/15 06:26:50;;;;;;;;;;;;;;;17.43;100.00;100334.68;107089;1260;62185;-86
2024/04/15 06:29:18;;;;;;;;;;;;;;;17.57;100.00;100334.10;106462;1262;62325;-85
2024/04/15 06:31:47;;;;;;;;;;;;;;;17.78;100.00;100330.95;106894;1257;75008;-85
2024/04/15 06:34:18;;;;;;;;;;;;;;;18.02;100.00;100333.45;107790;1251;68631;-85
2024/04/15 06:36:46;;;;;;;;;;;;;;;18.25;100.00;100329.43;108061;1256;75138;-86
2024/04/15 06:48:26;;;;;;;;;;;;;;;18.90;100.00;100337.19;106478;1260;76827;-88
2024/04/15 06:50:56;;;;;;;;;;;;;;;18.92;100.00;100329.02;106749;1257;68928;-89
2024/04/15 06:53:25;;;;;;;;;;;;;;;18.98;100.00;100321.55;105815;1256;74767;-88
2024/04/15 06:55:53;;;;;;;;;;;;;;;19.02;100.00;100317.77;105989;1257;62156;-89
2024/04/15 06:58:24;;;;;;;;;;;;;;;19.18;100.00;100313.98;105981;1256;62179;-89
2024/04/15 07:01:08;;;;;;;;;;;;;;;19.31;100.00;100315.48;106229;1257;74307;-83
2024/04/15 07:03:37;;;;;;;;;;;;;;;19.42;100.00;100316.11;106084;1256;72590;-84
2024/04/15 07:06:06;;;;;;;;;;;;;;;19.60;100.00;100312.45;105952;1256;72548;-89
2024/04/15 07:08:35;;;;;;;;;;;;;;;19.79;100.00;100308.36;106688;1256;62116;-91
2024/04/15 07:11:03;;;;;;;;;;;;;;;19.96;99.32;100311.06;106389;1261;62030;-84
2024/04/15 07:13:33;;;;;;;;;;;;;;;20.10;99.37;100305.35;106201;1256;75223;-83
2024/04/15 07:16:02;;;;;;;;;;;;;;;20.23;95.40;100298.61;106201;1256;68690;-83
2024/04/15 07:18:30;;;;;;;;;;;;;;;20.38;94.28;100309.94;106363;1262;75230;-83
2024/04/15 07:20:58;;;;;;;;;;;;;;;20.57;92.84;100309.77;106117;1256;61634;-89
2024/04/15 07:23:28;;;;;;;;;;;;;;;20.61;89.71;100309.11;106275;1255;62203;-88
2024/04/15 07:25:59;;;;;;;;;;;;;;;20.71;85.54;100308.91;106377;1256;75910;-91
2024/04/15 07:28:28;;;;;;;;;;;;;;;20.71;81.17;100307.08;106151;1264;67912;-84
2024/04/15 07:30:58;;;;;;;;;;;;;;;20.73;77.71;100306.52;105879;1263;72999;-82
2024/04/15 07:33:28;;;;;;;;;;;;;;;20.93;73.23;100303.20;108319;1257;60314;-90
2024/04/15 07:35:57;;;;;;;;;;;;;;;20.98;70.13;100294.93;106528;1256;62021;-83
2024/04/15 07:38:25;;;;;;;;;;;;;;;20.98;70.60;100284.09;106255;1262;73913;-89
2024/04/15 07:40:54;;;;;;;;;;;;;;;21.10;69.39;100280.43;106393;1262;71353;-92
2024/04/15 07:43:22;;;;;;;;;;;;;;;21.34;69.85;100282.58;106546;1259;74280;-90
2024/04/15 07:45:52;;;;;;;;;;;;;;;21.60;69.86;100274.94;106485;1256;62597;-83
2024/04/15 07:48:20;;;;;;;;;;;;;;;21.86;66.09;100276.32;106582;1256;62543;-84
2024/04/15 07:50:50;;;;;;;;;;;;;;;22.06;59.16;100274.48;106025;1255;75498;-85
2024/04/15 07:53:18;;;;;;;;;;;;;;;22.12;58.44;100271.53;105938;1256;68679;-85
2024/04/15 07:55:49;;;;;;;;;;;;;;;22.33;56.73;100272.10;105733;1259;74727;-84
2024/04/15 07:58:20;;;;;;;;;;;;;;;22.51;53.63;100264.08;106111;1258;62169;-85
2024/04/15 08:00:51;;;;;;;;;;;;;;;22.49;51.18;100257.34;106431;1262;60933;-85
2024/04/15 08:03:20;;;;;;;;;;;;;;;22.35;51.97;100258.33;105948;1256;76328;-85
2024/04/15 08:05:50;;;;;;;;;;;;;;;22.28;52.47;100256.60;106325;1262;69742;-91
2024/04/15 08:08:19;;;;;;;;;;;;;;;22.36;53.01;100254.13;106168;1259;73832;-85
2024/04/15 08:10:47;;;;;;;;;;;;;;;22.48;53.13;100255.42;106013;1257;62137;-83
2024/04/15 08:13:17;;;;;;;;;;;;;;;22.51;51.68;100260.42;106677;1255;61918;-85
2024/04/15 08:15:46;;;;;;;;;;;;;;;22.46;50.30;100255.23;106107;1256;77886;-85
2024/04/15 08:18:15;;;;;;;;;;;;;;;22.54;47.95;100253.15;106216;1256;67637;-84
2024/04/15 08:20:52;;;;;;;;;;;;;;;22.46;46.60;100251.80;106188;1262;72502;-84
2024/04/15 08:23:21;;;;;;;;;;;;;;;22.23;47.81;100245.56;106048;1256;62829;-89
2024/04/15 08:26:00;;;;;;;;;;;;;;;22.17;48.85;100236.52;106236;1257;61190;-89
2024/04/15 08:28:29;;;;;;;;;;;;;;;22.16;47.95;100234.73;106086;1256;76049;-84
2024/04/15 08:30:58;;;;;;;;;;;;;;;22.13;48.26;100236.16;106835;1256;71231;-85
2024/04/15 08:33:26;;;;;;;;;;;;;;;22.14;47.98;100228.64;106117;1262;74956;-84
2024/04/15 08:35:54;;;;;;;;;;;;;;;22.18;48.82;100213.53;106052;1262;62120;-84
2024/04/15 08:38:22;;;;;;;;;;;;;;;22.31;48.55;100201.14;105967;1256;62026;-85
2024/04/15 08:40:54;;;;;;;;;;;;;;;22.47;49.06;100201.71;105900;1256;76667;-85
2024/04/15 08:43:22;;;;;;;;;;;;;;;22.58;48.16;100204.39;105936;1256;70431;-84
2024/04/15 08:45:57;;;;;;;;;;;;;;;22.53;48.20;100199.06;105976;1264;74949;-85
2024/04/15 08:48:27;;;;;;;;;;;;;;;22.51;48.43;100195.03;106906;1257;62071;-91
2024/04/15 08:50:56;;;;;;;;;;;;;;;22.59;49.39;100200.85;106104;1259;62121;-84
2024/04/15 08:53:24;;;;;;;;;;;;;;;22.69;49.28;100201.77;106115;1256;77673;-85
2024/04/15 08:55:53;;;;;;;;;;;;;;;22.71;49.52;100203.48;105799;1264;66859;-86
2024/04/15 08:58:24;;;;;;;;;;;;;;;22.66;50.47;100198.52;106317;1257;71630;-85
2024/04/15 09:00:53;;;;;;;;;;;;;;;22.72;50.20;100193.95;107143;1262;62120;-81
2024/04/15 09:03:23;;;;;;;;;;;;;;;22.77;50.80;100189.35;106913;1256;62099;-83
2024/04/15 09:05:56;;;;;;;;;;;;;;;22.88;50.55;100187.89;106574;1264;76987;-90
2024/04/15 09:08:24;;;;;;;;;;;;;;;22.90;50.15;100175.34;106219;1256;70413;-90
2024/04/15 09:10:53;;;;;;;;;;;;;;;22.83;50.67;100163.83;106007;1256;74824;-91
2024/04/15 09:13:25;;;;;;;;;;;;;;;22.81;52.28;100161.33;105897;1256;62566;-85
2024/04/15 09:15:53;;;;;;;;;;;;;;;22.97;54.21;100150.40;106013;1262;62376;-84
2024/04/15 09:18:27;;;;;;;;;;;;;;;23.19;52.47;100136.39;106680;1256;73833;-84
2024/04/15 09:21:00;;;;;;;;;;;;;;;23.39;51.25;100140.15;105964;1263;69980;-89
2024/04/15 09:23:34;;;;;;;;;;;;;;;23.47;49.96;100149.27;106290;1256;72011;-85
2024/04/15 09:26:03;;;;;;;;;;;;;;;23.41;50.29;100137.55;105945;1259;62246;-90
2024/04/15 09:28:31;;;;;;;;;;;;;;;23.47;51.87;100126.88;106139;1261;62462;-84
2024/04/15 09:31:02;;;;;;;;;;;;;;;23.61;51.18;100114.13;105886;1264;78074;-91
2024/04/15 09:33:32;;;;;;;;;;;;;;;23.74;51.16;100109.05;105984;1256;70752;-90
2024/04/15 09:36:00;;;;;;;;;;;;;;;23.91;50.14;100112.65;107010;1259;74687;-85
2024/04/15 09:38:29;;;;;;;;;;;;;;;24.00;49.23;100109.89;105902;1256;62828;-90
2024/04/15 09:40:58;;;;;;;;;;;;;;;23.97;46.86;100106.52;106064;1256;62355;-90
2024/04/15 09:43:28;;;;;;;;;;;;;;;23.87;47.48;100098.09;106285;1257;76348;-84
2024/04/15 09:45:57;;;;;;;;;;;;;;;23.87;47.85;100094.18;105952;1259;70116;-85
2024/04/15 09:48:29;;;;;;;;;;;;;;;23.82;48.01;100078.17;105790;1264;71384;-85
2024/04/15 09:51:06;;;;;;;;;;;;;;;23.72;49.33;100075.06;106017;1261;62031;-85
2024/04/15 09:53:41;;;;;;;;;;;;;;;23.73;49.48;100072.55;106397;1256;61932;-90
2024/04/15 09:56:13;;;;;;;;;;;;;;;23.85;49.40;100079.80;107251;1256;77514;-86
2024/04/15 09:58:43;;;;;;;;;;;;;;;23.90;46.12;100077.64;107510;1259;69725;-84
2024/04/15 10:01:16;;;;;;;;;;;;;;;23.85;46.38;100075.90;106697;1259;74499;-91
2024/04/15 10:03:51;;;;;;;;;;;;;;;23.81;45.98;100073.93;105963;1257;62131;-83
2024/04/15 10:06:22;;;;;;;;;;;;;;;23.75;46.05;100076.90;105820;1256;61967;-88
2024/04/15 10:08:50;;;;;;;;;;;;;;;23.75;46.22;100072.17;106091;1256;77531;-88
2024/04/15 10:11:18;;;;;;;;;;;;;;;23.65;46.90;100072.98;105981;1256;68602;-84
2024/04/15 10:13:48;;;;;;;;;;;;;;;23.76;56.60;100073.63;106158;1258;71484;-90
2024/04/15 10:16:19;;;;;;;;;;;;;;;23.32;60.11;100075.27;106004;1257;62083;-82
2024/04/15 10:19:10;;;;;;;;;;;;;;;22.87;56.75;100076.67;105952;1256;61940;-89
2024/04/15 10:21:42;;;;;;;;;;;;;;;22.66;54.47;100087.77;106791;1256;76594;-83
2024/04/15 10:24:11;;;;;;;;;;;;;;;22.54;56.35;100098.67;106250;1256;70228;-84
2024/04/15 10:26:41;;;;;;;;;;;;;;;22.35;59.40;100098.46;106090;1259;72606;-84
2024/04/15 10:29:22;;;;;;;;;;;;;;;22.16;58.65;100097.11;106168;1259;62063;-90
2024/04/15 10:31:51;;;;;;;;;;;;;;;21.98;55.68;100091.48;106336;1258;62501;-82
2024/04/15 10:34:20;;;;;;;;;;;;;;;21.79;57.34;100104.77;106544;1256;77100;-90
2024/04/15 10:36:55;;;;;;;;;;;;;;;21.60;65.55;100116.25;106218;1262;68805;-81
2024/04/15 10:39:24;;;;;;;;;;;;;;;21.35;65.19;100115.57;106420;1260;72639;-89
2024/04/15 10:41:54;;;;;;;;;;;;;;;21.14;60.69;100111.78;104954;1259;1818809;-88
2024/04/15 10:44:21;;;;;;;;;;;;;;;21.07;73.62;100110.27;106339;1255;61967;-84
2024/04/15 10:46:51;;;;;;;;;;;;;;;20.92;88.31;100105.77;106162;1263;78111;-88
2024/04/15 10:49:19;;;;;;;;;;;;;;;20.61;93.77;100107.08;106255;1256;69108;-83
2024/04/15 10:51:46;;;;;;;;;;;;;;;20.24;99.97;100113.23;106191;1258;70403;-90
2024/04/15 10:54:16;;;;;;;;;;;;;;;19.78;100.00;100110.71;107490;1256;63644;-87
2024/04/15 10:56:44;;;;;;;;;;;;;;;19.28;100.00;100112.14;106235;1256;62001;-88
2024/04/15 10:59:13;;;;;;;;;;;;;;;18.91;100.00;100122.05;106104;1259;78773;-84
2024/04/15 11:01:44;;;;;;;;;;;;;;;18.62;100.00;100115.60;105999;1257;67192;-85
2024/04/15 11:04:13;;;;;;;;;;;;;;;18.41;100.00;100117.92;106307;1256;74665;-90
2024/04/15 11:06:46;;;;;;;;;;;;;;;18.21;100.00;100136.39;106148;1257;62105;-89
2024/04/15 11:09:15;;;;;;;;;;;;;;;18.01;100.00;100156.88;105917;1256;62094;-84
2024/04/15 11:11:43;;;;;;;;;;;;;;;17.81;100.00;100149.31;106075;1257;74952;-83
2024/04/15 11:14:14;;;;;;;;;;;;;;;17.64;100.00;100146.75;106063;1256;68573;-83
2024/04/15 11:16:46;;;;;;;;;;;;;;;17.51;100.00;100128.79;106188;1259;73317;-84
2024/04/15 11:19:16;;;;;;;;;;;;;;;17.43;100.00;100117.98;106089;1259;64122;-85
2024/04/15 11:21:45;;;;;;;;;;;;;;;17.39;100.00;100118.11;106078;1257;62031;-87
2024/04/15 11:24:16;;;;;;;;;;;;;;;17.36;100.00;100102.56;106058;1258;77299;-86
2024/04/15 11:26:47;;;;;;;;;;;;;;;17.36;100.00;100093.62;106467;1260;70026;-86
2024/04/15 11:29:18;;;;;;;;;;;;;;;17.41;100.00;100081.45;105909;1256;71977;-86
2024/04/15 11:31:47;;;;;;;;;;;;;;;17.59;100.00;100067.15;105680;1266;62036;-86
2024/04/15 11:34:17;;;;;;;;;;;;;;;17.89;100.00;100074.08;106079;1259;62216;-86
2024/04/15 11:36:46;;;;;;;;;;;;;;;18.15;100.00;100067.66;106221;1259;76742;-85
2024/04/15 11:39:16;;;;;;;;;;;;;;;18.39;100.00;100065.14;105891;1257;68800;-87
2024/04/15 11:41:44;;;;;;;;;;;;;;;18.57;100.00;100052.80;107148;1258;71530;-87
2024/04/15 11:44:13;;;;;;;;;;;;;;;18.64;100.00;100039.04;106049;1259;62355;-87
2024/04/15 11:46:42;;;;;;;;;;;;;;;18.71;100.00;100033.09;105774;1258;62152;-87
2024/04/15 11:49:11;;;;;;;;;;;;;;;18.68;100.00;100030.43;105766;1263;75548;-84
2024/04/15 11:51:43;;;;;;;;;;;;;;;18.62;100.00;100015.73;105925;1256;70160;-88
2024/04/15 11:54:12;;;;;;;;;;;;;;;18.55;100.00;99996.91;105980;1256;75023;-83
2024/04/15 11:56:40;;;;;;;;;;;;;;;18.51;100.00;99979.30;106087;1265;62120;-87
2024/04/15 11:59:09;;;;;;;;;;;;;;;18.52;100.00;99969.39;106004;1259;62224;-88
2024/04/15 12:01:37;;;;;;;;;;;;;;;18.55;100.00;99967.84;106359;1256;74518;-88
2024/04/15 12:04:06;;;;;;;;;;;;;;;18.65;100.00;99968.78;106085;1263;67669;-88
2024/04/15 12:06:35;;;;;;;;;;;;;;;18.68;100.00;99961.67;105853;1260;75558;-84
2024/04/15 12:09:04;;;;;;;;;;;;;;;18.65;100.00;99949.34;105800;1260;62112;-84
2024/04/15 12:11:33;;;;;;;;;;;;;;;18.65;100.00;99931.38;106295;1256;61952;-87
2024/04/15 12:14:01;;;;;;;;;;;;;;;18.70;100.00;99927.67;106370;1262;76523;-84
2024/04/15 12:16:29;;;;;;;;;;;;;;;18.70;100.00;99928.47;106154;1257;69514;-86
2024/04/15 12:18:57;;;;;;;;;;;;;;;18.72;100.00;99924.73;106212;1258;72863;-88
2024/04/15 12:21:26;;;;;;;;;;;;;;;18.73;100.00;99918.51;105966;1268;63341;-88
2024/04/15 12:23:54;;;;;;;;;;;;;;;18.67;100.00;99908.61;107070;1262;62153;-88
2024/04/15 12:26:25;;;;;;;;;;;;;;;18.58;100.00;99895.98;105835;1259;77490;-85
2024/04/15 12:28:56;;;;;;;;;;;;;;;18.44;100.00;99897.67;105956;1264;68828;-88
2024/04/15 12:31:25;;;;;;;;;;;;;;;18.40;100.00;99899.91;106032;1258;73738;-89
2024/04/15 12:33:53;;;;;;;;;;;;;;;18.32;100.00;99905.67;105846;1256;62028;-88
2024/04/15 12:36:22;;;;;;;;;;;;;;;18.27;100.00;99903.98;105908;1258;62057;-84
2024/04/15 12:38:51;;;;;;;;;;;;;;;18.25;100.00;99899.58;105830;1265;77982;-84